Time;durP1;ratioP1;P1;durP2;ratioP2;P2;SDS_P1;SDS_P2;PMS_P1;PMS_P2;Temp;Humidity;BMP_temperature;BMP_pressure;BME280_temperature;BME280_humidity;BME280_pressure;Samples;Min_cycle;Max_cycle;Signal;HPM_P1;HPM_P2
2021/01/11 00:00:32;;;;;;;69.55;26.20;;;;;;;-3.71;81.11;99655.22;119859;1144;65162;-89
2021/01/11 00:03:04;;;;;;;73.23;28.23;;;;;;;-3.73;81.08;99648.28;119893;1144;65089;-89
2021/01/11 00:05:30;;;;;;;81.70;29.75;;;;;;;-3.75;82.17;99653.52;120108;1144;65081;-89
2021/01/11 00:07:57;;;;;;;80.27;29.77;;;;;;;-3.75;81.45;99658.74;119832;1144;65076;-89
2021/01/11 00:10:23;;;;;;;97.15;32.30;;;;;;;-3.74;82.06;99665.70;119800;1144;65072;-88
2021/01/11 00:12:49;;;;;;;105.77;38.63;;;;;;;-3.75;81.45;99656.13;119767;1144;65106;-89
2021/01/11 00:15:16;;;;;;;106.05;37.70;;;;;;;-3.77;81.30;99655.25;119745;1145;65127;-88
2021/01/11 00:17:43;;;;;;;116.33;42.65;;;;;;;-3.77;82.16;99650.03;119752;1144;65102;-91
2021/01/11 00:20:11;;;;;;;86.03;32.73;;;;;;;-3.78;81.84;99650.05;120159;1144;65173;-89
2021/01/11 00:22:42;;;;;;;83.77;33.47;;;;;;;-3.79;81.97;99657.02;119752;1145;65104;-88
2021/01/11 00:25:10;;;;;;;84.57;31.73;;;;;;;-3.82;82.02;99657.01;119774;1144;65110;-88
2021/01/11 00:27:37;;;;;;;88.50;33.23;;;;;;;-3.85;82.01;99646.60;119719;1144;65215;-88
2021/01/11 00:30:06;;;;;;;87.95;32.15;;;;;;;-3.87;81.56;99651.83;119889;1144;65030;-88
2021/01/11 00:32:34;;;;;;;77.50;30.47;;;;;;;-3.90;81.81;99656.19;119829;1144;65147;-91
2021/01/11 00:35:02;;;;;;;90.77;32.63;;;;;;;-3.95;81.60;99655.33;119624;1144;65236;-88
2021/01/11 00:37:28;;;;;;;90.50;33.00;;;;;;;-3.98;82.02;99655.36;119729;1144;65095;-89
2021/01/11 00:39:55;;;;;;;91.77;33.47;;;;;;;-3.98;81.72;99652.75;119728;1144;65270;-89
2021/01/11 00:42:21;;;;;;;88.90;35.90;;;;;;;-4.02;81.54;99654.48;119694;1144;65191;-89
2021/01/11 00:44:48;;;;;;;79.35;32.85;;;;;;;-4.05;82.21;99653.65;119713;1144;65197;-89
2021/01/11 00:47:15;;;;;;;93.30;33.40;;;;;;;-4.09;81.67;99663.21;119859;1144;65124;-89
2021/01/11 00:49:42;;;;;;;83.63;31.73;;;;;;;-4.12;81.83;99658.89;119847;1144;65051;-90
2021/01/11 00:52:09;;;;;;;83.27;31.63;;;;;;;-4.12;81.31;99658.02;119942;1144;65104;-90
2021/01/11 00:54:37;;;;;;;78.80;30.03;;;;;;;-4.13;82.07;99672.80;119852;1144;65242;-90
2021/01/11 00:57:07;;;;;;;81.00;32.03;;;;;;;-4.14;81.99;99665.83;120062;1144;65130;-90
2021/01/11 00:59:44;;;;;;;76.67;31.50;;;;;;;-4.16;81.36;99670.19;120087;1144;65098;-90
2021/01/11 01:02:11;;;;;;;79.53;31.20;;;;;;;-4.15;81.54;99673.66;120204;1145;65087;-90
2021/01/11 01:04:37;;;;;;;75.23;28.53;;;;;;;-4.15;81.66;99676.27;120259;1145;65095;-90
2021/01/11 01:07:04;;;;;;;76.13;29.40;;;;;;;-4.17;82.00;99675.42;120433;1144;65117;-90
2021/01/11 01:09:30;;;;;;;76.97;29.87;;;;;;;-4.18;82.13;99669.34;120323;1145;65035;-89
2021/01/11 01:11:57;;;;;;;69.23;30.17;;;;;;;-4.17;81.76;99675.42;120439;1144;65036;-91
2021/01/11 01:14:23;;;;;;;77.03;29.73;;;;;;;-4.17;81.25;99675.42;120412;1144;65210;-88
2021/01/11 01:16:51;;;;;;;86.97;30.80;;;;;;;-4.18;81.65;99673.69;120443;1144;65065;-88
2021/01/11 01:19:18;;;;;;;74.75;28.85;;;;;;;-4.18;82.36;99674.55;120442;1144;65101;-88
2021/01/11 01:21:44;;;;;;;76.17;30.60;;;;;;;-4.15;82.07;99681.48;120560;1144;65160;-89
2021/01/11 01:24:11;;;;;;;73.33;28.30;;;;;;;-4.12;81.86;99679.75;120516;1144;66172;-89
2021/01/11 01:26:37;;;;;;;77.27;31.50;;;;;;;-4.04;82.57;99671.03;120906;1144;65040;-89
2021/01/11 01:29:03;;;;;;;78.13;29.63;;;;;;;-4.03;81.77;99675.38;120671;1147;65101;-89
2021/01/11 01:31:30;;;;;;;72.00;31.37;;;;;;;-4.10;81.80;99678.00;120673;1144;65053;-89
2021/01/11 01:33:56;;;;;;;77.10;30.47;;;;;;;-4.18;81.51;99671.08;120699;1144;65091;-89
2021/01/11 01:36:23;;;;;;;81.70;31.65;;;;;;;-4.30;81.87;99661.55;120643;1144;65175;-90
2021/01/11 01:38:49;;;;;;;71.30;28.95;;;;;;;-4.37;81.80;99659.83;120741;1144;65079;-89
2021/01/11 01:41:16;;;;;;;66.57;27.67;;;;;;;-4.44;81.62;99660.72;120615;1144;65104;-89
2021/01/11 01:43:44;;;;;;;54.40;22.90;;;;;;;-4.47;81.36;99656.36;120880;1144;65034;-91
2021/01/11 01:46:20;;;;;;;60.00;23.10;;;;;;;-4.44;81.70;99660.72;120666;1144;65034;-89
2021/01/11 01:48:46;;;;;;;52.60;20.35;;;;;;;-4.42;81.62;99657.22;120752;1144;65479;-89
2021/01/11 01:51:13;;;;;;;54.10;23.00;;;;;;;-4.38;81.92;99658.09;120923;1144;65082;-89
2021/01/11 01:53:39;;;;;;;59.43;22.03;;;;;;;-4.39;81.65;99652.02;120563;1144;65101;-89
2021/01/11 01:56:06;;;;;;;55.95;23.00;;;;;;;-4.37;81.71;99645.05;120322;1144;65574;-90
2021/01/11 01:58:35;;;;;;;48.83;20.63;;;;;;;-4.37;81.36;99647.66;120497;1144;65095;-90
2021/01/11 02:01:01;;;;;;;53.23;23.13;;;;;;;-4.38;81.42;99651.14;120347;1145;65142;-91
2021/01/11 02:03:28;;;;;;;50.80;20.87;;;;;;;-4.39;81.31;99644.20;120426;1145;65265;-90
2021/01/11 02:05:55;;;;;;;58.03;21.00;;;;;;;-4.42;81.83;99651.14;120797;1144;65015;-91
2021/01/11 02:08:44;;;;;;;52.30;20.93;;;;;;;-4.45;81.47;99643.34;120277;1145;65012;-91
2021/01/11 02:11:19;;;;;;;49.37;20.63;;;;;;;-4.50;81.26;99643.34;120204;1147;65167;-91
2021/01/11 02:14:10;;;;;;;48.17;21.67;;;;;;;-4.51;81.44;99643.36;120167;1145;65072;-91
2021/01/11 02:17:04;;;;;;;59.30;23.60;;;;;;;-4.43;82.05;99636.38;120069;1145;65168;-90
2021/01/11 02:19:56;;;;;;;61.50;23.43;;;;;;;-4.42;82.06;99638.11;120000;1145;65070;-89
2021/01/11 02:22:51;;;;;;;65.27;25.57;;;;;;;-4.48;81.90;99635.52;119561;1148;65073;-90
2021/01/11 02:25:25;;;;;;;57.77;22.13;;;;;;;-4.54;81.22;99638.13;119402;1151;65232;-91
2021/01/11 02:27:56;;;;;;;60.40;23.73;;;;;;;-4.62;81.68;99641.63;119019;1151;65298;-89
2021/01/11 02:30:40;;;;;;;59.03;22.27;;;;;;;-4.67;81.26;99635.55;119041;1151;65068;-90
2021/01/11 02:33:09;;;;;;;60.15;22.80;;;;;;;-4.71;81.65;99625.13;119387;1151;65201;-90
2021/01/11 02:35:48;;;;;;;47.00;20.65;;;;;;;-4.66;81.79;99628.59;119489;1151;65112;-89
2021/01/11 02:38:17;;;;;;;50.97;19.60;;;;;;;-4.59;81.86;99626.84;119331;1150;65117;-91
2021/01/11 02:40:44;;;;;;;43.60;18.60;;;;;;;-4.56;81.27;99621.64;119257;1150;65108;-90
2021/01/11 02:43:12;;;;;;;46.33;18.17;;;;;;;-4.54;81.79;99619.89;119284;1150;65558;-89
2021/01/11 02:45:38;;;;;;;38.90;17.10;;;;;;;-4.50;81.80;99621.63;119307;1150;65393;-89
2021/01/11 02:48:12;;;;;;;46.80;19.03;;;;;;;-4.48;82.05;99619.87;119216;1151;65020;-89
2021/01/11 02:50:53;;;;;;;42.10;16.80;;;;;;;-4.51;81.29;99627.72;119232;1150;65223;-88
2021/01/11 02:53:28;;;;;;;38.73;17.30;;;;;;;-4.55;81.77;99625.98;119068;1150;65271;-89
2021/01/11 02:55:58;;;;;;;43.13;17.90;;;;;;;-4.55;82.07;99621.63;119313;1151;65043;-89
2021/01/11 02:58:25;;;;;;;51.20;20.15;;;;;;;-4.56;81.56;99621.64;119236;1149;65028;-89
2021/01/11 03:00:54;;;;;;;43.03;17.73;;;;;;;-4.59;82.05;99614.68;119575;1147;65365;-89
2021/01/11 03:03:23;;;;;;;46.43;18.30;;;;;;;-4.62;81.59;99615.56;119752;1144;65209;-91
2021/01/11 03:05:50;;;;;;;35.77;16.17;;;;;;;-4.70;81.40;99604.30;119762;1144;65070;-89
2021/01/11 03:08:22;;;;;;;36.93;15.90;;;;;;;-4.74;81.18;99601.69;119708;1144;65174;-90
2021/01/11 03:10:48;;;;;;;36.47;14.83;;;;;;;-4.78;81.43;99607.77;119838;1144;65207;-89
2021/01/11 03:13:15;;;;;;;31.15;14.50;;;;;;;-4.86;81.60;99605.18;119739;1144;65008;-89
2021/01/11 03:15:41;;;;;;;35.63;13.87;;;;;;;-4.90;80.88;99599.13;119655;1144;65219;-88
2021/01/11 03:18:07;;;;;;;33.85;13.75;;;;;;;-4.92;81.32;99597.37;119737;1144;65143;-91
2021/01/11 03:20:34;;;;;;;34.17;15.70;;;;;;;-4.90;81.30;99598.23;119979;1144;65145;-89
2021/01/11 03:23:00;;;;;;;30.90;14.63;;;;;;;-4.93;80.90;99600.85;119831;1144;65095;-91
2021/01/11 03:25:26;;;;;;;34.00;13.70;;;;;;;-4.98;80.86;99594.77;119882;1145;65099;-90
2021/01/11 03:27:53;;;;;;;37.07;15.50;;;;;;;-5.00;81.20;99591.31;119831;1144;65111;-90
2021/01/11 03:30:20;;;;;;;36.77;15.43;;;;;;;-4.99;81.23;99582.63;120120;1145;65105;-89
2021/01/11 03:32:50;;;;;;;32.50;14.97;;;;;;;-4.96;81.55;99580.03;119795;1144;65163;-90
2021/01/11 03:35:17;;;;;;;39.50;14.90;;;;;;;-5.03;81.43;99586.95;119686;1144;65065;-90
2021/01/11 03:37:43;;;;;;;40.35;16.65;;;;;;;-5.07;81.58;99579.17;119700;1145;65172;-90
2021/01/11 03:40:10;;;;;;;36.93;14.70;;;;;;;-5.10;81.21;99572.20;119758;1144;65098;-89
2021/01/11 03:42:38;;;;;;;37.97;17.40;;;;;;;-5.11;81.25;99574.82;119754;1145;65140;-88
2021/01/11 03:45:07;;;;;;;39.50;17.00;;;;;;;-5.13;81.49;99579.17;119824;1144;65113;-89
2021/01/11 03:47:34;;;;;;;34.77;16.23;;;;;;;-5.23;81.18;99575.69;119936;1144;65118;-89
2021/01/11 03:50:01;;;;;;;31.60;14.15;;;;;;;-5.29;81.13;99568.75;120024;1144;65247;-89
2021/01/11 03:52:27;;;;;;;47.85;20.10;;;;;;;-5.37;81.20;99572.23;119892;1144;65098;-91
2021/01/11 03:54:54;;;;;;;46.10;18.00;;;;;;;-5.33;81.55;99567.03;119701;1144;65159;-90
2021/01/11 03:57:20;;;;;;;50.85;18.45;;;;;;;-5.36;81.39;99572.22;120090;1144;65088;-90
2021/01/11 03:59:46;;;;;;;45.33;18.97;;;;;;;-5.40;81.37;99573.11;119773;1144;65215;-88
2021/01/11 04:02:12;;;;;;;45.40;17.47;;;;;;;-5.38;81.90;99566.16;119781;1145;65084;-89
2021/01/11 04:04:39;;;;;;;32.40;15.00;;;;;;;-5.33;81.91;99566.17;119981;1144;65108;-89
2021/01/11 04:07:06;;;;;;;35.85;15.00;;;;;;;-5.33;81.54;99566.17;119877;1144;65086;-89
2021/01/11 04:09:32;;;;;;;33.27;16.33;;;;;;;-5.40;81.35;99559.23;119959;1144;65095;-89
2021/01/11 04:11:58;;;;;;;38.20;15.10;;;;;;;-5.46;81.78;99560.95;119761;1144;65101;-89
2021/01/11 04:14:25;;;;;;;39.13;15.73;;;;;;;-5.51;81.23;99561.82;119855;1144;65085;-90
2021/01/11 04:16:52;;;;;;;36.67;15.17;;;;;;;-5.54;81.17;99556.59;119984;1144;65197;-90
2021/01/11 04:19:19;;;;;;;33.50;15.20;;;;;;;-5.59;81.02;99554.02;119771;1144;65153;-90
2021/01/11 04:21:46;;;;;;;35.07;15.00;;;;;;;-5.61;81.20;99555.73;119826;1144;65051;-90
2021/01/11 04:24:12;;;;;;;36.75;15.20;;;;;;;-5.61;81.36;99555.73;119744;1144;65101;-90
2021/01/11 04:26:38;;;;;;;38.30;15.33;;;;;;;-5.56;80.66;99558.34;119911;1144;65107;-89
2021/01/11 04:29:05;;;;;;;36.87;16.57;;;;;;;-5.52;81.01;99554.89;119728;1148;65071;-87
2021/01/11 04:31:31;;;;;;;39.17;15.40;;;;;;;-5.49;81.53;99552.27;119810;1144;65111;-88
2021/01/11 04:33:58;;;;;;;36.45;15.25;;;;;;;-5.47;81.33;99553.13;119758;1144;65102;-90
2021/01/11 04:36:24;;;;;;;39.00;15.87;;;;;;;-5.46;81.10;99552.28;119827;1144;65149;-92
2021/01/11 04:38:51;;;;;;;38.20;15.93;;;;;;;-5.46;81.17;99549.69;119745;1144;65106;-88
2021/01/11 04:41:20;;;;;;;44.20;16.53;;;;;;;-5.44;81.22;99546.20;119898;1144;65168;-90
2021/01/11 04:43:48;;;;;;;44.73;16.63;;;;;;;-5.45;81.38;99547.08;119892;1144;65117;-94
2021/01/11 04:46:15;;;;;;;38.83;16.70;;;;;;;-5.48;81.36;99540.98;119955;1144;65162;-91
2021/01/11 04:48:42;;;;;;;44.87;18.97;;;;;;;-5.51;80.94;99547.07;119808;1144;65191;-89
2021/01/11 04:51:10;;;;;;;40.43;17.97;;;;;;;-5.52;81.05;99539.27;119872;1145;65191;-90
2021/01/11 04:53:42;;;;;;;46.60;19.13;;;;;;;-5.51;81.24;99538.40;119837;1144;65213;-90
2021/01/11 04:56:11;;;;;;;41.20;17.40;;;;;;;-5.52;81.17;99540.14;120170;1144;65090;-88
2021/01/11 04:58:58;;;;;;;45.17;15.43;;;;;;;-5.46;81.40;99544.48;119926;1144;65170;-90
2021/01/11 05:01:26;;;;;;;44.17;16.27;;;;;;;-5.52;81.12;99540.14;120133;1144;65111;-89
2021/01/11 05:04:00;;;;;;;39.35;17.30;;;;;;;-5.54;81.37;99541.84;120053;1144;65143;-89
2021/01/11 05:06:27;;;;;;;39.33;17.10;;;;;;;-5.50;81.48;99546.20;119821;1144;65197;-89
2021/01/11 05:09:08;;;;;;;40.77;17.17;;;;;;;-5.49;81.59;99549.66;119913;1144;65232;-88
2021/01/11 05:11:35;;;;;;;42.93;17.10;;;;;;;-5.50;81.30;99548.80;120081;1144;65076;-91
2021/01/11 05:14:01;;;;;;;46.90;18.57;;;;;;;-5.64;81.12;99545.33;119794;1144;65114;-91
2021/01/11 05:16:28;;;;;;;49.17;19.33;;;;;;;-5.78;80.69;99549.66;119911;1144;65107;-90
2021/01/11 05:19:01;;;;;;;50.43;20.30;;;;;;;-5.86;81.07;99546.16;120198;1144;65031;-91
2021/01/11 05:21:46;;;;;;;52.70;18.93;;;;;;;-5.95;81.00;99543.59;119921;1144;65159;-89
2021/01/11 05:24:37;;;;;;;51.23;18.77;;;;;;;-5.89;81.53;99547.03;119779;1144;65255;-90
2021/01/11 05:27:06;;;;;;;36.77;15.90;;;;;;;-5.95;81.12;99543.59;119794;1145;65098;-91
2021/01/11 05:29:33;;;;;;;42.57;15.83;;;;;;;-5.94;80.71;99548.78;120056;1144;65079;-89
2021/01/11 05:32:02;;;;;;;38.97;14.80;;;;;;;-5.93;81.02;99534.91;119947;1144;65150;-90
2021/01/11 05:35:05;;;;;;;47.53;17.07;;;;;;;-5.93;80.90;99537.52;120018;1144;65134;-89
2021/01/11 05:37:42;;;;;;;46.17;17.87;;;;;;;-5.86;80.99;99539.22;119348;1148;65149;-91
2021/01/11 05:40:22;;;;;;;43.47;17.33;;;;;;;-5.83;81.09;99540.98;119446;1148;65095;-88
2021/01/11 05:42:53;;;;;;;42.80;17.37;;;;;;;-5.80;81.10;99543.56;119366;1147;65287;-89
2021/01/11 05:45:25;;;;;;;44.90;16.97;;;;;;;-5.76;80.90;99533.17;119345;1148;65105;-89
2021/01/11 05:48:04;;;;;;;45.23;16.70;;;;;;;-5.72;81.11;99537.53;119746;1148;65099;-88
2021/01/11 05:50:50;;;;;;;41.33;14.37;;;;;;;-5.68;81.12;99527.11;119887;1148;65107;-87
2021/01/11 05:53:24;;;;;;;45.13;16.60;;;;;;;-5.65;80.90;99529.73;119622;1148;65079;-87
2021/01/11 05:55:53;;;;;;;45.43;17.23;;;;;;;-5.65;80.97;99530.59;119568;1148;65202;-87
2021/01/11 05:58:22;;;;;;;53.70;19.70;;;;;;;-5.65;80.93;99533.19;119595;1148;65291;-89
2021/01/11 06:00:49;;;;;;;53.37;20.43;;;;;;;-5.63;80.96;99535.79;119401;1149;65113;-89
2021/01/11 06:03:16;;;;;;;64.10;23.90;;;;;;;-5.63;80.95;99526.25;119408;1148;65180;-90
2021/01/11 06:05:43;;;;;;;55.47;21.23;;;;;;;-5.60;81.07;99530.57;119407;1148;65037;-91
2021/01/11 06:08:13;;;;;;;50.60;20.20;;;;;;;-5.59;80.84;99532.34;119344;1148;65089;-88
2021/01/11 06:10:43;;;;;;;46.40;17.45;;;;;;;-5.59;81.01;99527.13;119422;1150;65287;-89
2021/01/11 06:13:11;;;;;;;45.20;18.80;;;;;;;-5.60;80.93;99528.84;119821;1144;65149;-88
2021/01/11 06:15:39;;;;;;;46.37;18.80;;;;;;;-5.61;80.79;99527.11;119946;1144;65104;-88
2021/01/11 06:18:11;;;;;;;44.97;17.87;;;;;;;-5.61;81.03;99534.91;119782;1144;65113;-91
2021/01/11 06:20:45;;;;;;;41.77;17.00;;;;;;;-5.60;80.98;99536.64;119822;1144;65092;-92
2021/01/11 06:23:25;;;;;;;45.07;16.83;;;;;;;-5.61;81.03;99536.65;119859;1144;65193;-90
2021/01/11 06:25:52;;;;;;;48.10;18.43;;;;;;;-5.61;80.60;99544.45;120125;1144;65079;-88
2021/01/11 06:28:35;;;;;;;47.33;18.33;;;;;;;-5.61;81.10;99549.66;119933;1144;65118;-88
2021/01/11 06:31:10;;;;;;;53.87;18.47;;;;;;;-5.62;81.11;99553.13;119890;1144;65196;-90
2021/01/11 06:33:38;;;;;;;45.90;16.33;;;;;;;-5.63;80.99;99561.81;119847;1144;65468;-91
2021/01/11 06:36:18;;;;;;;49.40;17.85;;;;;;;-5.66;81.00;99556.58;119914;1144;65103;-89
2021/01/11 06:38:47;;;;;;;43.15;17.10;;;;;;;-5.66;81.00;99557.48;119880;1144;65239;-91
2021/01/11 06:41:16;;;;;;;40.80;16.73;;;;;;;-5.64;81.00;99560.94;119885;1144;65178;-92
2021/01/11 06:43:45;;;;;;;37.10;15.40;;;;;;;-5.66;81.02;99559.19;119919;1144;65207;-89
2021/01/11 06:46:42;;;;;;;52.25;18.70;;;;;;;-5.65;80.99;99558.34;119853;1144;64977;-90
2021/01/11 06:49:11;;;;;;;60.60;22.63;;;;;;;-5.63;80.99;99559.20;119819;1144;65108;-89
2021/01/11 06:51:43;;;;;;;95.77;34.10;;;;;;;-5.61;80.95;99565.27;119953;1144;65158;-89
2021/01/11 06:54:14;;;;;;;97.43;32.80;;;;;;;-5.60;80.81;99569.60;119877;1144;65095;-89
2021/01/11 06:56:43;;;;;;;94.50;32.17;;;;;;;-5.59;81.09;99560.95;119824;1144;65484;-90
2021/01/11 06:59:17;;;;;;;79.97;28.80;;;;;;;-5.58;80.80;99570.49;119907;1144;65092;-89
2021/01/11 07:01:46;;;;;;;72.15;25.48;;;;;;;-5.60;80.82;99567.00;119907;1144;65100;-92
2021/01/11 07:04:36;;;;;;;52.77;21.70;;;;;;;-5.59;80.78;99556.62;119790;1145;65229;-91
2021/01/11 07:07:03;;;;;;;53.37;21.30;;;;;;;-5.57;80.68;99565.28;119850;1144;65171;-90
2021/01/11 07:09:29;;;;;;;53.00;20.27;;;;;;;-5.55;80.73;99560.07;119879;1144;65136;-89
2021/01/11 07:12:04;;;;;;;49.70;17.10;;;;;;;-5.48;80.84;99567.88;119905;1144;65092;-90
2021/01/11 07:14:55;;;;;;;57.33;21.90;;;;;;;-5.42;81.11;99560.94;119891;1144;65079;-88
2021/01/11 07:17:37;;;;;;;52.77;20.10;;;;;;;-5.37;80.75;99565.28;119817;1144;65095;-91
2021/01/11 07:20:09;;;;;;;52.90;21.90;;;;;;;-5.30;80.58;99566.16;119904;1144;65129;-87
2021/01/11 07:22:37;;;;;;;54.13;21.20;;;;;;;-5.25;80.70;99565.28;119820;1144;65072;-90
2021/01/11 07:25:14;;;;;;;51.10;19.23;;;;;;;-5.20;80.46;99567.90;119919;1144;65189;-88
2021/01/11 07:27:41;;;;;;;70.40;20.70;;;;;;;-5.13;80.59;99563.55;119955;1144;65436;-89
2021/01/11 07:30:08;;;;;;;61.73;21.00;;;;;;;-5.07;80.61;99564.41;119827;1144;65079;-90
2021/01/11 07:32:34;;;;;;;61.00;21.37;;;;;;;-5.01;80.82;99568.75;119815;1145;65181;-88
2021/01/11 07:35:02;;;;;;;54.03;19.77;;;;;;;-4.97;80.80;99554.83;119961;1144;65095;-90
2021/01/11 07:37:28;;;;;;;58.50;19.83;;;;;;;-4.92;80.36;99553.95;119950;1144;65106;-90
2021/01/11 07:39:55;;;;;;;68.00;23.93;;;;;;;-4.87;80.64;99558.30;120179;1144;65103;-92
2021/01/11 07:42:21;;;;;;;59.37;22.90;;;;;;;-4.82;80.70;99554.81;120899;1148;65150;-92
2021/01/11 07:44:48;;;;;;;57.43;20.37;;;;;;;-4.75;80.26;99563.48;121162;1144;65098;-88
2021/01/11 07:47:16;;;;;;;50.73;21.60;;;;;;;-4.69;80.69;99569.55;120916;1144;65120;-91
2021/01/11 07:49:50;;;;;;;56.80;21.57;;;;;;;-4.62;80.09;99567.79;120652;1144;65189;-91
2021/01/11 07:52:26;;;;;;;67.70;27.40;;;;;;;-4.53;80.46;99566.87;120380;1144;65191;-92
2021/01/11 07:55:26;;;;;;;66.23;24.33;;;;;;;-4.46;80.49;99571.20;120508;1144;65037;-92
2021/01/11 07:58:00;;;;;;;78.23;27.03;;;;;;;-4.38;80.19;99564.23;120420;1144;65153;-90
2021/01/11 08:00:27;;;;;;;75.50;27.60;;;;;;;-4.32;80.79;99569.44;120428;1144;65085;-90
2021/01/11 08:02:55;;;;;;;82.73;28.00;;;;;;;-4.24;79.89;99574.61;120242;1144;64987;-90
2021/01/11 08:05:23;;;;;;;94.77;29.77;;;;;;;-4.20;80.05;99571.98;120695;1144;65030;-90
2021/01/11 08:08:01;;;;;;;75.10;24.70;;;;;;;-4.15;80.34;99567.59;120580;1144;65204;-91
2021/01/11 08:10:29;;;;;;;78.03;27.10;;;;;;;-4.09;80.07;99579.74;120408;1144;65551;-91
2021/01/11 08:13:08;;;;;;;74.15;26.95;;;;;;;-4.01;80.04;99577.95;120339;1144;65081;-91
2021/01/11 08:15:41;;;;;;;70.05;25.15;;;;;;;-3.93;80.23;99583.16;120584;1144;65139;-91
2021/01/11 08:18:09;;;;;;;74.27;24.20;;;;;;;-3.87;79.86;99575.30;120373;1144;65149;-92
2021/01/11 08:20:35;;;;;;;68.83;25.07;;;;;;;-3.81;80.05;99590.92;120392;1144;65105;-90
2021/01/11 08:23:09;;;;;;;73.10;26.13;;;;;;;-3.74;80.26;99582.17;120308;1144;65117;-91
2021/01/11 08:25:39;;;;;;;47.03;21.27;;;;;;;-3.67;80.11;99580.39;119986;1144;65124;-90
2021/01/11 08:28:08;;;;;;;49.13;20.80;;;;;;;-3.60;79.99;99590.78;120143;1144;65027;-91
2021/01/11 08:30:35;;;;;;;59.00;23.80;;;;;;;-3.54;79.46;99585.52;120064;1144;65018;-92
2021/01/11 08:33:08;;;;;;;57.03;23.73;;;;;;;-3.48;79.68;99579.39;120222;1144;65136;-91
2021/01/11 08:35:35;;;;;;;57.03;22.17;;;;;;;-3.42;79.70;99584.56;120279;1144;65092;-90
2021/01/11 08:38:05;;;;;;;50.65;22.60;;;;;;;-3.32;80.04;99582.73;120155;1144;65134;-90
2021/01/11 08:40:33;;;;;;;44.87;20.00;;;;;;;-3.23;79.40;99580.06;120465;1144;65101;-90
2021/01/11 08:43:25;;;;;;;34.53;15.33;;;;;;;-3.18;79.28;99580.91;120133;1145;65111;-90
2021/01/11 08:45:56;;;;;;;61.60;21.02;;;;;;;-3.13;79.73;99578.23;120425;1144;65194;-91
2021/01/11 08:48:25;;;;;;;43.33;17.73;;;;;;;-3.04;80.17;99581.64;120430;1144;65124;-91
2021/01/11 08:50:52;;;;;;;49.50;20.67;;;;;;;-2.96;80.27;99584.18;120256;1144;65194;-90
2021/01/11 08:53:28;;;;;;;60.27;22.90;;;;;;;-2.89;79.39;99578.02;120373;1144;65098;-91
2021/01/11 08:56:04;;;;;;;60.33;20.60;;;;;;;-2.83;79.34;99574.48;120203;1144;65091;-91
2021/01/11 08:58:33;;;;;;;58.75;20.40;;;;;;;-2.74;78.97;99574.37;120330;1144;65191;-90
2021/01/11 09:01:11;;;;;;;50.80;21.07;;;;;;;-2.67;80.30;99576.07;120427;1144;65107;-91
2021/01/11 09:03:50;;;;;;;61.07;22.50;;;;;;;-2.57;79.24;99579.44;120886;1144;65049;-88
2021/01/11 09:06:39;;;;;;;73.90;23.37;;;;;;;-2.51;79.12;99580.23;120758;1147;64973;-91
2021/01/11 09:09:10;;;;;;;55.00;18.03;;;;;;;-2.42;79.38;99583.63;120653;1144;64999;-91
2021/01/11 09:11:39;;;;;;;51.33;17.60;;;;;;;-2.39;79.10;99587.08;120598;1145;65160;-91
2021/01/11 09:14:12;;;;;;;50.13;19.10;;;;;;;-2.35;79.71;99580.08;120897;1144;65082;-90
2021/01/11 09:16:41;;;;;;;57.57;25.70;;;;;;;-2.30;78.60;99579.11;121004;1144;65102;-90
2021/01/11 09:19:16;;;;;;;53.97;24.97;;;;;;;-2.26;79.83;99577.34;121102;1144;65075;-92
2021/01/11 09:21:48;;;;;;;55.33;22.83;;;;;;;-2.19;79.17;99576.38;121372;1144;64912;-91
2021/01/11 09:24:15;;;;;;;55.70;24.33;;;;;;;-2.06;79.23;99577.09;121185;1144;65213;-88
2021/01/11 09:26:41;;;;;;;41.97;17.90;;;;;;;-1.95;80.17;99565.59;120915;1144;65032;-92
2021/01/11 09:29:09;;;;;;;39.90;16.60;;;;;;;-1.85;79.02;99576.80;120999;1144;65167;-90
2021/01/11 09:31:36;;;;;;;41.80;16.43;;;;;;;-1.79;79.86;99567.99;121140;1144;65162;-92
2021/01/11 09:34:04;;;;;;;43.53;18.30;;;;;;;-1.70;79.46;99567.88;121499;1146;64992;-89
2021/01/11 09:36:33;;;;;;;42.70;18.60;;;;;;;-1.61;79.89;99557.26;121333;1144;65079;-91
2021/01/11 09:39:03;;;;;;;42.30;17.45;;;;;;;-1.50;79.78;99560.59;121552;1144;65064;-92
2021/01/11 09:41:30;;;;;;;42.05;17.70;;;;;;;-1.47;79.56;99565.77;121370;1145;63936;-92
2021/01/11 09:43:57;;;;;;;35.63;16.37;;;;;;;-1.40;79.60;99559.56;121522;1144;65214;-90
2021/01/11 09:46:24;;;;;;;30.17;13.63;;;;;;;-1.31;78.95;99555.92;121150;1144;65066;-89
2021/01/11 09:48:52;;;;;;;35.93;15.47;;;;;;;-1.25;78.95;99553.20;120830;1144;65110;-90
2021/01/11 09:51:28;;;;;;;29.97;13.93;;;;;;;-1.20;79.58;99548.76;120813;1144;65060;-91
2021/01/11 09:53:54;;;;;;;;;;;;;;;-1.08;79.88;99552.94;120388;1144;65031;-90
2021/01/11 09:56:21;;;;;;;26.10;12.73;;;;;;;-0.98;79.36;99544.00;120416;1144;65143;-91
2021/01/11 09:58:51;;;;;;;31.43;13.97;;;;;;;-0.93;78.28;99547.41;120603;1144;65163;-91
2021/01/11 10:01:18;;;;;;;41.40;16.97;;;;;;;-0.88;78.53;99549.96;120424;1144;65278;-87
2021/01/11 10:03:44;;;;;;;53.53;22.10;;;;;;;-0.84;78.95;99544.61;120197;1144;65189;-89
2021/01/11 10:06:11;;;;;;;73.33;28.97;;;;;;;-0.81;78.74;99543.70;120055;1144;65105;-89
2021/01/11 10:08:37;;;;;;;45.90;19.87;;;;;;;-0.69;78.51;99543.48;119884;1144;65082;-89
2021/01/11 10:11:14;;;;;;;31.73;14.87;;;;;;;-0.67;78.40;99538.20;120315;1144;65082;-88
2021/01/11 10:13:41;;;;;;;33.20;16.70;;;;;;;-0.52;79.26;99540.52;119706;1144;65275;-88
2021/01/11 10:16:08;;;;;;;34.20;17.17;;;;;;;-0.37;78.88;99534.98;119720;1144;65106;-90
2021/01/11 10:18:35;;;;;;;43.10;18.30;;;;;;;-0.25;78.96;99538.23;119765;1144;65063;-89
2021/01/11 10:21:01;;;;;;;51.30;20.40;;;;;;;-0.19;79.24;99538.10;119889;1145;65171;-88
2021/01/11 10:23:28;;;;;;;53.70;21.17;;;;;;;-0.13;79.25;99530.97;119746;1144;65103;-89
2021/01/11 10:25:59;;;;;;;70.77;24.23;;;;;;;-0.06;79.34;99527.34;119775;1144;65140;-89
2021/01/11 10:28:26;;;;;;;42.55;19.15;;;;;;;0.12;79.39;99519.93;120015;1144;65082;-88
2021/01/11 10:30:54;;;;;;;51.40;22.67;;;;;;;0.23;79.13;99525.81;119700;1144;65287;-88
2021/01/11 10:33:21;;;;;;;56.13;22.83;;;;;;;0.26;79.01;99517.88;119728;1145;65149;-88
2021/01/11 10:35:47;;;;;;;49.00;20.83;;;;;;;0.35;78.95;99516.80;119787;1144;65085;-93
2021/01/11 10:38:13;;;;;;;57.00;23.30;;;;;;;0.45;78.48;99505.17;119841;1144;65089;-90
2021/01/11 10:40:40;;;;;;;46.83;19.83;;;;;;;0.52;78.75;99497.10;119908;1145;65103;-86
2021/01/11 10:43:06;;;;;;;45.87;18.83;;;;;;;0.67;78.89;99492.36;119795;1144;65092;-91
2021/01/11 10:45:33;;;;;;;46.43;17.83;;;;;;;0.74;77.95;99484.27;119888;1145;65095;-90
2021/01/11 10:48:01;;;;;;;45.70;22.27;;;;;;;0.76;78.58;99482.49;119667;1144;65104;-88
2021/01/11 10:50:28;;;;;;;53.83;20.83;;;;;;;0.86;78.35;99482.24;119744;1144;65311;-88
2021/01/11 10:52:55;;;;;;;44.27;20.60;;;;;;;0.93;78.50;99465.40;119777;1144;65133;-89
2021/01/11 10:55:24;;;;;;;45.87;19.33;;;;;;;0.99;78.54;99466.09;119912;1144;65108;-91
2021/01/11 10:57:51;;;;;;;38.60;18.30;;;;;;;1.05;78.08;99465.07;119779;1144;65108;-89
2021/01/11 11:00:21;;;;;;;48.43;19.03;;;;;;;1.16;78.59;99460.39;119803;1144;65085;-89
2021/01/11 11:02:50;;;;;;;33.63;15.57;;;;;;;1.26;78.27;99456.58;120019;1144;65079;-90
2021/01/11 11:05:17;;;;;;;37.47;13.70;;;;;;;1.30;77.88;99455.59;119927;1144;65105;-89
2021/01/11 11:07:44;;;;;;;36.30;16.15;;;;;;;1.35;78.38;99455.48;119956;1144;65075;-89
2021/01/11 11:10:12;;;;;;;32.40;16.03;;;;;;;1.45;77.80;99451.66;120077;1144;65090;-89
2021/01/11 11:12:39;;;;;;;34.17;14.93;;;;;;;1.43;77.67;99445.59;119798;1144;65628;-87
2021/01/11 11:15:06;;;;;;;35.50;15.90;;;;;;;1.49;78.26;99445.41;119739;1145;65207;-88
2021/01/11 11:17:34;;;;;;;31.80;15.10;;;;;;;1.57;77.95;99445.18;119819;1144;65108;-86
2021/01/11 11:20:01;;;;;;;31.50;13.10;;;;;;;1.54;77.80;99450.55;119814;1144;65101;-90
2021/01/11 11:22:27;;;;;;;28.77;13.57;;;;;;;1.55;77.64;99444.37;119990;1144;65092;-86